sensor_id;sensor_type;location;lat;lon;timestamp;temperature;humidity
38239;DHT22;24035;48.900;9.188;2023-03-11T00:01:27;3.20;99.90
38239;DHT22;24035;48.900;9.188;2023-03-11T00:03:53;3.20;99.90
38239;DHT22;24035;48.900;9.188;2023-03-11T00:06:19;3.20;99.90
38239;DHT22;24035;48.900;9.188;2023-03-11T00:08:44;3.20;83.50
38239;DHT22;24035;48.900;9.188;2023-03-11T00:11:10;3.10;99.90
38239;DHT22;24035;48.900;9.188;2023-03-11T00:13:36;3.10;42.60
38239;DHT22;24035;48.900;9.188;2023-03-11T00:16:02;3.10;99.90
38239;DHT22;24035;48.900;9.188;2023-03-11T00:18:29;3.10;79.20
38239;DHT22;24035;48.900;9.188;2023-03-11T00:20:56;3.00;99.90
38239;DHT22;24035;48.900;9.188;2023-03-11T00:23:23;3.00;99.90
38239;DHT22;24035;48.900;9.188;2023-03-11T00:25:49;3.00;99.90
38239;DHT22;24035;48.900;9.188;2023-03-11T00:28:15;3.00;99.90
38239;DHT22;24035;48.900;9.188;2023-03-11T00:30:43;2.90;99.90
38239;DHT22;24035;48.900;9.188;2023-03-11T00:33:11;2.80;99.90
38239;DHT22;24035;48.900;9.188;2023-03-11T00:35:37;2.80;99.90
38239;DHT22;24035;48.900;9.188;2023-03-11T00:38:05;2.70;99.90
38239;DHT22;24035;48.900;9.188;2023-03-11T00:40:33;2.70;99.90
38239;DHT22;24035;48.900;9.188;2023-03-11T00:42:59;2.70;99.90
38239;DHT22;24035;48.900;9.188;2023-03-11T00:45:27;2.80;99.90
38239;DHT22;24035;48.900;9.188;2023-03-11T00:47:54;2.70;99.90
38239;DHT22;24035;48.900;9.188;2023-03-11T00:50:23;2.80;1.00
38239;DHT22;24035;48.900;9.188;2023-03-11T00:52:50;2.80;99.90
38239;DHT22;24035;48.900;9.188;2023-03-11T00:55:22;2.80;99.90
38239;DHT22;24035;48.900;9.188;2023-03-11T00:57:51;2.80;1.00
38239;DHT22;24035;48.900;9.188;2023-03-11T01:00:20;2.80;99.90
38239;DHT22;24035;48.900;9.188;2023-03-11T01:02:46;2.70;1.00
38239;DHT22;24035;48.900;9.188;2023-03-11T01:05:12;2.70;1.00
38239;DHT22;24035;48.900;9.188;2023-03-11T01:07:38;2.70;1.00
38239;DHT22;24035;48.900;9.188;2023-03-11T01:10:06;2.70;1.00
38239;DHT22;24035;48.900;9.188;2023-03-11T01:12:32;2.70;1.00
38239;DHT22;24035;48.900;9.188;2023-03-11T01:14:57;2.70;1.00
38239;DHT22;24035;48.900;9.188;2023-03-11T01:17:23;2.70;1.00
38239;DHT22;24035;48.900;9.188;2023-03-11T01:19:49;2.60;1.00
38239;DHT22;24035;48.900;9.188;2023-03-11T01:22:15;2.60;1.00
38239;DHT22;24035;48.900;9.188;2023-03-11T01:24:41;2.60;1.00
38239;DHT22;24035;48.900;9.188;2023-03-11T01:27:07;2.60;1.00
38239;DHT22;24035;48.900;9.188;2023-03-11T01:29:33;2.50;1.00
38239;DHT22;24035;48.900;9.188;2023-03-11T01:31:58;2.50;1.00
38239;DHT22;24035;48.900;9.188;2023-03-11T01:34:24;2.40;1.00
38239;DHT22;24035;48.900;9.188;2023-03-11T01:36:50;2.40;1.00
38239;DHT22;24035;48.900;9.188;2023-03-11T01:39:15;2.40;1.00
38239;DHT22;24035;48.900;9.188;2023-03-11T01:41:41;2.40;1.00
38239;DHT22;24035;48.900;9.188;2023-03-11T01:44:10;2.40;1.00
38239;DHT22;24035;48.900;9.188;2023-03-11T01:49:24;2.40;1.00
38239;DHT22;24035;48.900;9.188;2023-03-11T01:51:59;2.30;1.00
38239;DHT22;24035;48.900;9.188;2023-03-11T01:54:35;2.40;1.00
38239;DHT22;24035;48.900;9.188;2023-03-11T01:57:04;2.40;1.00
38239;DHT22;24035;48.900;9.188;2023-03-11T01:59:38;2.40;1.00
38239;DHT22;24035;48.900;9.188;2023-03-11T02:02:18;2.40;1.00
38239;DHT22;24035;48.900;9.188;2023-03-11T02:04:45;2.30;1.00
38239;DHT22;24035;48.900;9.188;2023-03-11T02:07:13;2.20;1.00
38239;DHT22;24035;48.900;9.188;2023-03-11T02:09:38;2.20;1.00
38239;DHT22;24035;48.900;9.188;2023-03-11T02:12:05;2.20;1.00
38239;DHT22;24035;48.900;9.188;2023-03-11T02:14:32;2.20;1.00
38239;DHT22;24035;48.900;9.188;2023-03-11T02:16:59;2.20;1.00
38239;DHT22;24035;48.900;9.188;2023-03-11T02:22:13;2.10;1.00
38239;DHT22;24035;48.900;9.188;2023-03-11T02:25:16;2.00;1.00
38239;DHT22;24035;48.900;9.188;2023-03-11T02:27:48;2.00;1.00
38239;DHT22;24035;48.900;9.188;2023-03-11T02:30:16;2.00;1.00
38239;DHT22;24035;48.900;9.188;2023-03-11T02:32:43;1.90;1.00
38239;DHT22;24035;48.900;9.188;2023-03-11T02:35:13;1.80;1.00
38239;DHT22;24035;48.900;9.188;2023-03-11T02:37:58;1.70;1.00
38239;DHT22;24035;48.900;9.188;2023-03-11T02:42:51;1.50;1.00
38239;DHT22;24035;48.900;9.188;2023-03-11T02:45:18;1.40;1.00
38239;DHT22;24035;48.900;9.188;2023-03-11T02:47:44;1.40;1.00
38239;DHT22;24035;48.900;9.188;2023-03-11T02:50:13;1.30;1.00
38239;DHT22;24035;48.900;9.188;2023-03-11T02:52:39;1.30;1.00
38239;DHT22;24035;48.900;9.188;2023-03-11T02:55:06;1.20;1.00
38239;DHT22;24035;48.900;9.188;2023-03-11T02:57:32;1.20;1.00
38239;DHT22;24035;48.900;9.188;2023-03-11T02:59:57;1.10;1.00
38239;DHT22;24035;48.900;9.188;2023-03-11T03:02:24;1.00;1.00
38239;DHT22;24035;48.900;9.188;2023-03-11T03:04:50;1.00;1.00
38239;DHT22;24035;48.900;9.188;2023-03-11T03:07:15;0.80;1.00
38239;DHT22;24035;48.900;9.188;2023-03-11T03:09:41;0.80;1.00
38239;DHT22;24035;48.900;9.188;2023-03-11T03:12:07;0.80;1.00
38239;DHT22;24035;48.900;9.188;2023-03-11T03:14:32;0.70;1.00
38239;DHT22;24035;48.900;9.188;2023-03-11T03:16:58;0.60;1.00
38239;DHT22;24035;48.900;9.188;2023-03-11T03:19:24;0.50;1.00
38239;DHT22;24035;48.900;9.188;2023-03-11T03:21:49;0.50;1.00
38239;DHT22;24035;48.900;9.188;2023-03-11T03:24:15;0.50;1.00
38239;DHT22;24035;48.900;9.188;2023-03-11T03:26:41;0.50;1.00
38239;DHT22;24035;48.900;9.188;2023-03-11T03:29:06;0.60;1.00
38239;DHT22;24035;48.900;9.188;2023-03-11T03:31:32;0.50;1.00
38239;DHT22;24035;48.900;9.188;2023-03-11T03:33:58;0.50;1.00
38239;DHT22;24035;48.900;9.188;2023-03-11T03:36:23;0.50;1.00
38239;DHT22;24035;48.900;9.188;2023-03-11T03:38:53;0.40;1.00
38239;DHT22;24035;48.900;9.188;2023-03-11T03:41:19;0.40;1.00
38239;DHT22;24035;48.900;9.188;2023-03-11T03:43:48;0.40;1.00
38239;DHT22;24035;48.900;9.188;2023-03-11T03:46:14;0.30;1.00
38239;DHT22;24035;48.900;9.188;2023-03-11T03:48:40;0.40;1.00
38239;DHT22;24035;48.900;9.188;2023-03-11T03:51:09;0.50;1.00
38239;DHT22;24035;48.900;9.188;2023-03-11T03:53:36;0.50;1.00
38239;DHT22;24035;48.900;9.188;2023-03-11T03:56:07;0.50;99.90
38239;DHT22;24035;48.900;9.188;2023-03-11T03:58:33;0.60;99.90
38239;DHT22;24035;48.900;9.188;2023-03-11T04:00:59;0.50;99.90
38239;DHT22;24035;48.900;9.188;2023-03-11T04:03:27;0.60;99.90
38239;DHT22;24035;48.900;9.188;2023-03-11T04:05:53;0.50;99.90
38239;DHT22;24035;48.900;9.188;2023-03-11T04:08:18;0.60;99.90
38239;DHT22;24035;48.900;9.188;2023-03-11T04:10:55;0.60;99.90
38239;DHT22;24035;48.900;9.188;2023-03-11T04:13:21;0.60;99.90
38239;DHT22;24035;48.900;9.188;2023-03-11T04:15:47;0.60;99.90
38239;DHT22;24035;48.900;9.188;2023-03-11T04:18:12;0.50;1.00
38239;DHT22;24035;48.900;9.188;2023-03-11T04:20:38;0.30;1.00
38239;DHT22;24035;48.900;9.188;2023-03-11T04:23:04;0.20;1.00
38239;DHT22;24035;48.900;9.188;2023-03-11T04:25:30;0.10;1.00
38239;DHT22;24035;48.900;9.188;2023-03-11T04:27:55;0.10;1.00
38239;DHT22;24035;48.900;9.188;2023-03-11T04:30:21;0.10;1.00
38239;DHT22;24035;48.900;9.188;2023-03-11T04:32:47;0.00;1.00
38239;DHT22;24035;48.900;9.188;2023-03-11T04:35:12;0.00;1.00
38239;DHT22;24035;48.900;9.188;2023-03-11T04:37:38;0.00;1.00
38239;DHT22;24035;48.900;9.188;2023-03-11T04:40:04;0.00;1.00
38239;DHT22;24035;48.900;9.188;2023-03-11T04:42:31;0.00;1.00
38239;DHT22;24035;48.900;9.188;2023-03-11T04:44:57;-0.10;1.00
38239;DHT22;24035;48.900;9.188;2023-03-11T04:47:22;0.00;1.00
38239;DHT22;24035;48.900;9.188;2023-03-11T04:49:48;0.00;1.00
38239;DHT22;24035;48.900;9.188;2023-03-11T04:52:14;0.10;1.00
38239;DHT22;24035;48.900;9.188;2023-03-11T04:54:39;0.10;1.00
38239;DHT22;24035;48.900;9.188;2023-03-11T04:57:05;0.30;1.00
38239;DHT22;24035;48.900;9.188;2023-03-11T04:59:31;0.30;1.00
38239;DHT22;24035;48.900;9.188;2023-03-11T05:01:56;0.30;1.00
38239;DHT22;24035;48.900;9.188;2023-03-11T05:04:22;0.30;1.00
38239;DHT22;24035;48.900;9.188;2023-03-11T05:06:48;0.40;1.00
38239;DHT22;24035;48.900;9.188;2023-03-11T05:09:15;0.40;1.00
38239;DHT22;24035;48.900;9.188;2023-03-11T05:11:41;0.30;1.00
38239;DHT22;24035;48.900;9.188;2023-03-11T05:14:07;0.30;1.00
38239;DHT22;24035;48.900;9.188;2023-03-11T05:16:33;0.10;1.00
38239;DHT22;24035;48.900;9.188;2023-03-11T05:18:58;0.10;1.00
38239;DHT22;24035;48.900;9.188;2023-03-11T05:21:24;0.00;1.00
38239;DHT22;24035;48.900;9.188;2023-03-11T05:23:50;0.00;1.00
38239;DHT22;24035;48.900;9.188;2023-03-11T05:26:16;-0.10;1.00
38239;DHT22;24035;48.900;9.188;2023-03-11T05:28:41;-0.10;6.00
38239;DHT22;24035;48.900;9.188;2023-03-11T05:31:10;-0.10;13.30
38239;DHT22;24035;48.900;9.188;2023-03-11T05:33:36;-0.20;19.70
38239;DHT22;24035;48.900;9.188;2023-03-11T05:36:06;-0.10;47.50
38239;DHT22;24035;48.900;9.188;2023-03-11T05:38:34;-0.10;27.30
38239;DHT22;24035;48.900;9.188;2023-03-11T05:41:00;-0.10;12.60
38239;DHT22;24035;48.900;9.188;2023-03-11T05:43:25;-0.10;34.50
38239;DHT22;24035;48.900;9.188;2023-03-11T05:45:51;-0.20;77.40
38239;DHT22;24035;48.900;9.188;2023-03-11T05:48:17;-0.30;99.90
38239;DHT22;24035;48.900;9.188;2023-03-11T05:50:42;-0.30;99.90
38239;DHT22;24035;48.900;9.188;2023-03-11T05:53:08;-0.40;99.90
38239;DHT22;24035;48.900;9.188;2023-03-11T05:55:33;-0.40;99.90
38239;DHT22;24035;48.900;9.188;2023-03-11T05:57:59;-0.30;99.90
38239;DHT22;24035;48.900;9.188;2023-03-11T06:00:25;-0.40;99.90
38239;DHT22;24035;48.900;9.188;2023-03-11T06:02:53;-0.30;1.00
38239;DHT22;24035;48.900;9.188;2023-03-11T06:05:19;-0.30;99.90
38239;DHT22;24035;48.900;9.188;2023-03-11T06:07:45;-0.20;99.90
38239;DHT22;24035;48.900;9.188;2023-03-11T06:10:11;-0.20;99.90
38239;DHT22;24035;48.900;9.188;2023-03-11T06:12:37;-0.20;99.90
38239;DHT22;24035;48.900;9.188;2023-03-11T06:15:05;-0.20;99.90
38239;DHT22;24035;48.900;9.188;2023-03-11T06:17:31;-0.20;99.90
38239;DHT22;24035;48.900;9.188;2023-03-11T06:19:56;-0.20;99.90
38239;DHT22;24035;48.900;9.188;2023-03-11T06:22:22;0.00;99.90
38239;DHT22;24035;48.900;9.188;2023-03-11T06:24:48;0.20;37.80
38239;DHT22;24035;48.900;9.188;2023-03-11T06:27:13;0.30;1.00
38239;DHT22;24035;48.900;9.188;2023-03-11T06:29:39;0.40;1.00
38239;DHT22;24035;48.900;9.188;2023-03-11T06:32:05;0.50;1.00
38239;DHT22;24035;48.900;9.188;2023-03-11T06:34:31;0.60;1.00
38239;DHT22;24035;48.900;9.188;2023-03-11T06:36:56;0.60;1.00
38239;DHT22;24035;48.900;9.188;2023-03-11T06:39:24;0.60;1.00
38239;DHT22;24035;48.900;9.188;2023-03-11T06:41:49;0.60;1.00
38239;DHT22;24035;48.900;9.188;2023-03-11T06:44:15;0.60;1.00
38239;DHT22;24035;48.900;9.188;2023-03-11T06:46:40;0.70;1.00
38239;DHT22;24035;48.900;9.188;2023-03-11T06:49:06;0.80;1.00
38239;DHT22;24035;48.900;9.188;2023-03-11T06:51:32;1.00;1.00
38239;DHT22;24035;48.900;9.188;2023-03-11T06:53:58;1.20;1.00
38239;DHT22;24035;48.900;9.188;2023-03-11T06:56:24;1.30;99.90
38239;DHT22;24035;48.900;9.188;2023-03-11T06:58:50;1.40;99.90
38239;DHT22;24035;48.900;9.188;2023-03-11T07:01:18;1.50;99.90
38239;DHT22;24035;48.900;9.188;2023-03-11T07:03:45;1.60;99.90
38239;DHT22;24035;48.900;9.188;2023-03-11T07:06:16;1.70;99.90
38239;DHT22;24035;48.900;9.188;2023-03-11T07:08:42;1.70;99.90
38239;DHT22;24035;48.900;9.188;2023-03-11T07:11:13;1.70;99.90
38239;DHT22;24035;48.900;9.188;2023-03-11T07:13:39;1.70;99.90
38239;DHT22;24035;48.900;9.188;2023-03-11T07:16:08;1.70;73.10
38239;DHT22;24035;48.900;9.188;2023-03-11T07:18:35;1.60;99.90
38239;DHT22;24035;48.900;9.188;2023-03-11T07:21:02;1.70;99.90
38239;DHT22;24035;48.900;9.188;2023-03-11T07:23:28;1.70;83.00
38239;DHT22;24035;48.900;9.188;2023-03-11T07:25:53;1.80;90.00
38239;DHT22;24035;48.900;9.188;2023-03-11T07:28:21;1.80;99.90
38239;DHT22;24035;48.900;9.188;2023-03-11T07:30:47;1.80;63.30
38239;DHT22;24035;48.900;9.188;2023-03-11T07:33:13;1.60;57.10
38239;DHT22;24035;48.900;9.188;2023-03-11T07:35:39;1.60;99.90
38239;DHT22;24035;48.900;9.188;2023-03-11T07:38:04;1.50;99.90
38239;DHT22;24035;48.900;9.188;2023-03-11T07:40:30;1.50;99.90
38239;DHT22;24035;48.900;9.188;2023-03-11T07:42:56;1.50;99.90
38239;DHT22;24035;48.900;9.188;2023-03-11T07:45:22;1.50;99.90
38239;DHT22;24035;48.900;9.188;2023-03-11T07:47:48;1.60;96.10
38239;DHT22;24035;48.900;9.188;2023-03-11T07:50:13;1.70;99.90
38239;DHT22;24035;48.900;9.188;2023-03-11T07:52:42;1.90;95.30
38239;DHT22;24035;48.900;9.188;2023-03-11T07:55:08;1.80;6.40
38239;DHT22;24035;48.900;9.188;2023-03-11T07:57:34;1.80;3.30
38239;DHT22;24035;48.900;9.188;2023-03-11T08:00:00;1.80;16.10
38239;DHT22;24035;48.900;9.188;2023-03-11T08:02:26;1.70;6.60
38239;DHT22;24035;48.900;9.188;2023-03-11T08:04:54;1.60;1.00
38239;DHT22;24035;48.900;9.188;2023-03-11T08:07:20;1.60;1.00
38239;DHT22;24035;48.900;9.188;2023-03-11T08:09:46;1.70;1.00
38239;DHT22;24035;48.900;9.188;2023-03-11T08:12:12;1.70;1.00
38239;DHT22;24035;48.900;9.188;2023-03-11T08:14:37;1.80;1.00
38239;DHT22;24035;48.900;9.188;2023-03-11T08:17:04;1.70;1.00
38239;DHT22;24035;48.900;9.188;2023-03-11T08:19:30;1.70;1.00
38239;DHT22;24035;48.900;9.188;2023-03-11T08:21:56;1.80;5.40
38239;DHT22;24035;48.900;9.188;2023-03-11T08:24:22;1.90;1.00
38239;DHT22;24035;48.900;9.188;2023-03-11T08:26:47;1.80;1.00
38239;DHT22;24035;48.900;9.188;2023-03-11T08:29:13;1.80;1.00
38239;DHT22;24035;48.900;9.188;2023-03-11T08:31:39;1.80;1.00
38239;DHT22;24035;48.900;9.188;2023-03-11T08:34:07;1.90;1.00
38239;DHT22;24035;48.900;9.188;2023-03-11T08:36:33;1.90;1.00
38239;DHT22;24035;48.900;9.188;2023-03-11T08:38:59;1.90;1.00
38239;DHT22;24035;48.900;9.188;2023-03-11T08:41:26;1.90;1.00
38239;DHT22;24035;48.900;9.188;2023-03-11T08:43:52;1.90;1.00
38239;DHT22;24035;48.900;9.188;2023-03-11T08:46:29;2.00;1.00
38239;DHT22;24035;48.900;9.188;2023-03-11T08:48:56;2.10;1.00
38239;DHT22;24035;48.900;9.188;2023-03-11T08:51:22;2.20;1.00
38239;DHT22;24035;48.900;9.188;2023-03-11T08:53:48;2.30;1.00
38239;DHT22;24035;48.900;9.188;2023-03-11T08:56:15;2.40;1.00
38239;DHT22;24035;48.900;9.188;2023-03-11T08:58:40;2.50;1.00
38239;DHT22;24035;48.900;9.188;2023-03-11T09:01:06;2.60;1.00
38239;DHT22;24035;48.900;9.188;2023-03-11T09:03:34;2.80;1.00
38239;DHT22;24035;48.900;9.188;2023-03-11T09:06:01;2.70;1.00
38239;DHT22;24035;48.900;9.188;2023-03-11T09:08:28;2.70;1.00
38239;DHT22;24035;48.900;9.188;2023-03-11T09:10:54;2.60;1.00
38239;DHT22;24035;48.900;9.188;2023-03-11T09:13:20;2.70;1.00
38239;DHT22;24035;48.900;9.188;2023-03-11T09:15:48;2.70;1.00
38239;DHT22;24035;48.900;9.188;2023-03-11T09:18:14;2.50;1.00
38239;DHT22;24035;48.900;9.188;2023-03-11T09:20:41;2.50;1.00
38239;DHT22;24035;48.900;9.188;2023-03-11T09:23:08;2.70;1.00
38239;DHT22;24035;48.900;9.188;2023-03-11T09:25:34;2.90;1.00
38239;DHT22;24035;48.900;9.188;2023-03-11T09:28:00;3.00;1.00
38239;DHT22;24035;48.900;9.188;2023-03-11T09:30:25;3.10;1.00
38239;DHT22;24035;48.900;9.188;2023-03-11T09:32:51;3.40;1.00
38239;DHT22;24035;48.900;9.188;2023-03-11T09:35:17;3.40;1.00
38239;DHT22;24035;48.900;9.188;2023-03-11T09:37:42;3.50;1.00
38239;DHT22;24035;48.900;9.188;2023-03-11T09:40:11;3.50;1.00
38239;DHT22;24035;48.900;9.188;2023-03-11T09:45:20;3.60;1.00
38239;DHT22;24035;48.900;9.188;2023-03-11T09:50:34;3.50;1.00
38239;DHT22;24035;48.900;9.188;2023-03-11T09:55:51;3.30;1.00
38239;DHT22;24035;48.900;9.188;2023-03-11T10:01:22;3.00;1.00
38239;DHT22;24035;48.900;9.188;2023-03-11T10:03:49;3.10;1.00
38239;DHT22;24035;48.900;9.188;2023-03-11T10:06:22;3.20;1.00
38239;DHT22;24035;48.900;9.188;2023-03-11T10:14:54;3.90;1.00
38239;DHT22;24035;48.900;9.188;2023-03-11T10:17:33;4.30;1.00
38239;DHT22;24035;48.900;9.188;2023-03-11T10:20:13;4.60;1.00
38239;DHT22;24035;48.900;9.188;2023-03-11T10:22:56;5.00;1.00
38239;DHT22;24035;48.900;9.188;2023-03-11T10:28:18;5.10;99.90
38239;DHT22;24035;48.900;9.188;2023-03-11T10:35:43;4.20;99.90
38239;DHT22;24035;48.900;9.188;2023-03-11T10:38:23;4.60;99.90
38239;DHT22;24035;48.900;9.188;2023-03-11T10:40:54;4.90;99.90
38239;DHT22;24035;48.900;9.188;2023-03-11T10:43:32;4.90;99.90
38239;DHT22;24035;48.900;9.188;2023-03-11T10:46:06;5.00;99.90
38239;DHT22;24035;48.900;9.188;2023-03-11T10:48:36;4.80;99.90
38239;DHT22;24035;48.900;9.188;2023-03-11T10:51:18;4.90;99.90
38239;DHT22;24035;48.900;9.188;2023-03-11T10:53:53;4.90;99.90
38239;DHT22;24035;48.900;9.188;2023-03-11T10:58:54;5.00;99.90
38239;DHT22;24035;48.900;9.188;2023-03-11T11:01:20;5.60;99.90
38239;DHT22;24035;48.900;9.188;2023-03-11T11:03:50;5.50;99.90
38239;DHT22;24035;48.900;9.188;2023-03-11T11:06:33;5.80;99.90
38239;DHT22;24035;48.900;9.188;2023-03-11T11:09:15;5.80;99.90
38239;DHT22;24035;48.900;9.188;2023-03-11T11:11:45;5.60;99.90
38239;DHT22;24035;48.900;9.188;2023-03-11T11:14:24;5.50;99.90
38239;DHT22;24035;48.900;9.188;2023-03-11T11:16:51;4.90;99.90
38239;DHT22;24035;48.900;9.188;2023-03-11T11:19:17;4.70;99.90
38239;DHT22;24035;48.900;9.188;2023-03-11T11:21:48;4.70;99.90
38239;DHT22;24035;48.900;9.188;2023-03-11T11:24:19;5.10;99.90
38239;DHT22;24035;48.900;9.188;2023-03-11T11:27:14;5.40;99.90
38239;DHT22;24035;48.900;9.188;2023-03-11T11:29:40;5.70;99.90
38239;DHT22;24035;48.900;9.188;2023-03-11T11:37:20;6.80;99.90
38239;DHT22;24035;48.900;9.188;2023-03-11T11:39:51;6.50;99.90
38239;DHT22;24035;48.900;9.188;2023-03-11T11:42:21;6.00;99.90
38239;DHT22;24035;48.900;9.188;2023-03-11T11:44:59;6.20;99.90
38239;DHT22;24035;48.900;9.188;2023-03-11T11:47:33;6.40;99.90
38239;DHT22;24035;48.900;9.188;2023-03-11T11:50:03;6.70;99.90
38239;DHT22;24035;48.900;9.188;2023-03-11T11:52:34;7.10;99.90
38239;DHT22;24035;48.900;9.188;2023-03-11T11:55:17;7.50;99.90
38239;DHT22;24035;48.900;9.188;2023-03-11T11:57:45;7.80;99.90
38239;DHT22;24035;48.900;9.188;2023-03-11T12:02:59;7.50;99.90
38239;DHT22;24035;48.900;9.188;2023-03-11T12:05:30;8.10;99.90
38239;DHT22;24035;48.900;9.188;2023-03-11T12:08:21;7.40;99.90
38239;DHT22;24035;48.900;9.188;2023-03-11T12:11:05;6.70;99.90
38239;DHT22;24035;48.900;9.188;2023-03-11T12:13:49;6.10;99.90
38239;DHT22;24035;48.900;9.188;2023-03-11T12:16:47;5.80;99.90
38239;DHT22;24035;48.900;9.188;2023-03-11T12:19:48;5.80;99.90
38239;DHT22;24035;48.900;9.188;2023-03-11T12:22:44;5.40;99.90
38239;DHT22;24035;48.900;9.188;2023-03-11T12:25:26;5.30;99.90
38239;DHT22;24035;48.900;9.188;2023-03-11T12:30:29;5.20;99.90
38239;DHT22;24035;48.900;9.188;2023-03-11T12:35:56;4.70;99.90
38239;DHT22;24035;48.900;9.188;2023-03-11T12:38:38;4.80;99.90
38239;DHT22;24035;48.900;9.188;2023-03-11T12:46:13;5.50;99.90
38239;DHT22;24035;48.900;9.188;2023-03-11T12:49:08;5.70;99.90
38239;DHT22;24035;48.900;9.188;2023-03-11T12:56:58;6.30;99.90
38239;DHT22;24035;48.900;9.188;2023-03-11T13:02:18;6.70;99.90
38239;DHT22;24035;48.900;9.188;2023-03-11T13:07:47;6.30;99.90
38239;DHT22;24035;48.900;9.188;2023-03-11T13:10:52;6.10;99.90
38239;DHT22;24035;48.900;9.188;2023-03-11T13:13:39;5.90;99.90
38239;DHT22;24035;48.900;9.188;2023-03-11T13:21:57;5.80;99.90
38239;DHT22;24035;48.900;9.188;2023-03-11T13:29:59;6.20;99.90
38239;DHT22;24035;48.900;9.188;2023-03-11T13:41:15;6.60;99.90
38239;DHT22;24035;48.900;9.188;2023-03-11T13:43:49;6.30;99.90
38239;DHT22;24035;48.900;9.188;2023-03-11T13:46:25;5.70;99.90
38239;DHT22;24035;48.900;9.188;2023-03-11T13:48:56;5.80;99.90
38239;DHT22;24035;48.900;9.188;2023-03-11T13:54:08;6.00;99.90
38239;DHT22;24035;48.900;9.188;2023-03-11T13:56:44;6.10;99.90
38239;DHT22;24035;48.900;9.188;2023-03-11T13:59:31;6.10;99.90
38239;DHT22;24035;48.900;9.188;2023-03-11T14:02:18;5.80;99.90
38239;DHT22;24035;48.900;9.188;2023-03-11T14:04:56;5.60;99.90
38239;DHT22;24035;48.900;9.188;2023-03-11T14:07:28;5.50;99.90
38239;DHT22;24035;48.900;9.188;2023-03-11T14:10:15;5.40;99.90
38239;DHT22;24035;48.900;9.188;2023-03-11T14:12:41;5.50;99.90
38239;DHT22;24035;48.900;9.188;2023-03-11T14:15:08;5.50;99.90
38239;DHT22;24035;48.900;9.188;2023-03-11T14:17:37;5.60;99.90
38239;DHT22;24035;48.900;9.188;2023-03-11T14:20:13;5.60;99.90
38239;DHT22;24035;48.900;9.188;2023-03-11T14:22:46;5.60;99.90
38239;DHT22;24035;48.900;9.188;2023-03-11T14:25:27;5.80;99.90
38239;DHT22;24035;48.900;9.188;2023-03-11T14:28:00;5.80;99.90
38239;DHT22;24035;48.900;9.188;2023-03-11T14:30:31;5.70;99.90
38239;DHT22;24035;48.900;9.188;2023-03-11T14:33:15;5.80;99.90
38239;DHT22;24035;48.900;9.188;2023-03-11T14:35:51;5.80;99.90
38239;DHT22;24035;48.900;9.188;2023-03-11T14:38:22;5.90;99.90
38239;DHT22;24035;48.900;9.188;2023-03-11T14:40:54;5.90;99.90
38239;DHT22;24035;48.900;9.188;2023-03-11T14:43:21;6.00;99.90
38239;DHT22;24035;48.900;9.188;2023-03-11T14:45:48;6.00;99.90
38239;DHT22;24035;48.900;9.188;2023-03-11T14:48:28;5.80;99.90
38239;DHT22;24035;48.900;9.188;2023-03-11T14:50:58;5.80;99.90
38239;DHT22;24035;48.900;9.188;2023-03-11T14:53:39;5.80;99.90
38239;DHT22;24035;48.900;9.188;2023-03-11T14:56:12;6.00;99.90
38239;DHT22;24035;48.900;9.188;2023-03-11T14:58:41;6.30;99.90
38239;DHT22;24035;48.900;9.188;2023-03-11T15:01:41;6.40;99.90
38239;DHT22;24035;48.900;9.188;2023-03-11T15:04:30;6.50;99.90
38239;DHT22;24035;48.900;9.188;2023-03-11T15:06:58;6.40;99.90
38239;DHT22;24035;48.900;9.188;2023-03-11T15:09:25;6.20;99.90
38239;DHT22;24035;48.900;9.188;2023-03-11T15:11:53;6.00;99.90
38239;DHT22;24035;48.900;9.188;2023-03-11T15:14:32;5.90;99.90
38239;DHT22;24035;48.900;9.188;2023-03-11T15:17:18;5.90;99.90
38239;DHT22;24035;48.900;9.188;2023-03-11T15:19:50;6.10;99.90
38239;DHT22;24035;48.900;9.188;2023-03-11T15:24:52;6.50;99.90
38239;DHT22;24035;48.900;9.188;2023-03-11T15:27:27;6.30;99.90
38239;DHT22;24035;48.900;9.188;2023-03-11T15:29:55;6.20;99.90
38239;DHT22;24035;48.900;9.188;2023-03-11T15:37:25;5.70;99.90
38239;DHT22;24035;48.900;9.188;2023-03-11T15:39:52;5.50;99.90
38239;DHT22;24035;48.900;9.188;2023-03-11T15:42:23;5.40;99.90
38239;DHT22;24035;48.900;9.188;2023-03-11T15:45:03;5.40;99.90
38239;DHT22;24035;48.900;9.188;2023-03-11T15:47:29;5.50;99.90
38239;DHT22;24035;48.900;9.188;2023-03-11T15:49:54;5.70;99.90
38239;DHT22;24035;48.900;9.188;2023-03-11T15:52:20;5.50;99.90
38239;DHT22;24035;48.900;9.188;2023-03-11T15:54:46;5.50;99.90
38239;DHT22;24035;48.900;9.188;2023-03-11T15:57:38;5.50;99.90
38239;DHT22;24035;48.900;9.188;2023-03-11T16:00:06;5.60;99.90
38239;DHT22;24035;48.900;9.188;2023-03-11T16:02:32;5.50;99.90
38239;DHT22;24035;48.900;9.188;2023-03-11T16:04:58;5.20;99.90
38239;DHT22;24035;48.900;9.188;2023-03-11T16:07:24;5.00;99.90
38239;DHT22;24035;48.900;9.188;2023-03-11T16:09:50;5.10;99.90
38239;DHT22;24035;48.900;9.188;2023-03-11T16:12:21;5.10;99.90
38239;DHT22;24035;48.900;9.188;2023-03-11T16:14:48;5.10;99.90
38239;DHT22;24035;48.900;9.188;2023-03-11T16:17:14;5.10;99.90
38239;DHT22;24035;48.900;9.188;2023-03-11T16:19:44;5.20;99.90
38239;DHT22;24035;48.900;9.188;2023-03-11T16:22:18;5.10;99.90
38239;DHT22;24035;48.900;9.188;2023-03-11T16:24:50;5.00;99.90
38239;DHT22;24035;48.900;9.188;2023-03-11T16:27:17;5.00;99.90
38239;DHT22;24035;48.900;9.188;2023-03-11T16:29:43;4.90;99.90
38239;DHT22;24035;48.900;9.188;2023-03-11T16:32:09;4.80;99.90
38239;DHT22;24035;48.900;9.188;2023-03-11T16:34:37;4.80;99.90
38239;DHT22;24035;48.900;9.188;2023-03-11T16:37:07;4.80;99.90
38239;DHT22;24035;48.900;9.188;2023-03-11T16:39:33;4.80;99.90
38239;DHT22;24035;48.900;9.188;2023-03-11T16:41:59;4.70;99.90
38239;DHT22;24035;48.900;9.188;2023-03-11T16:44:25;4.60;99.90
38239;DHT22;24035;48.900;9.188;2023-03-11T16:46:51;4.50;99.90
38239;DHT22;24035;48.900;9.188;2023-03-11T16:49:16;4.60;99.90
38239;DHT22;24035;48.900;9.188;2023-03-11T16:51:42;4.50;99.90
38239;DHT22;24035;48.900;9.188;2023-03-11T16:54:08;4.50;99.90
38239;DHT22;24035;48.900;9.188;2023-03-11T16:56:34;4.40;99.90
38239;DHT22;24035;48.900;9.188;2023-03-11T16:59:00;4.40;99.90
38239;DHT22;24035;48.900;9.188;2023-03-11T17:01:26;4.40;99.90
38239;DHT22;24035;48.900;9.188;2023-03-11T17:03:52;4.40;99.90
38239;DHT22;24035;48.900;9.188;2023-03-11T17:06:18;4.30;99.90
38239;DHT22;24035;48.900;9.188;2023-03-11T17:08:44;4.30;99.90
38239;DHT22;24035;48.900;9.188;2023-03-11T17:11:18;4.20;99.90
38239;DHT22;24035;48.900;9.188;2023-03-11T17:13:44;4.10;99.90
38239;DHT22;24035;48.900;9.188;2023-03-11T17:16:10;4.20;99.90
38239;DHT22;24035;48.900;9.188;2023-03-11T17:18:36;4.20;99.90
38239;DHT22;24035;48.900;9.188;2023-03-11T17:21:07;4.10;99.90
38239;DHT22;24035;48.900;9.188;2023-03-11T17:23:33;4.10;99.90
38239;DHT22;24035;48.900;9.188;2023-03-11T17:25:58;4.00;99.90
38239;DHT22;24035;48.900;9.188;2023-03-11T17:28:24;3.90;99.90
38239;DHT22;24035;48.900;9.188;2023-03-11T17:30:50;3.80;99.90
38239;DHT22;24035;48.900;9.188;2023-03-11T17:33:15;3.70;99.90
38239;DHT22;24035;48.900;9.188;2023-03-11T17:35:41;3.60;99.90
38239;DHT22;24035;48.900;9.188;2023-03-11T17:38:07;3.60;99.90
38239;DHT22;24035;48.900;9.188;2023-03-11T17:40:33;3.50;99.90